sensor_id;sensor_type;location;lat;lon;timestamp;P1;durP1;ratioP1;P2;durP2;ratioP2
51382;SDS011;37475;43.358;1.248;2023-03-01T00:01:22;23.13;;;10.95;;
51382;SDS011;37475;43.358;1.248;2023-03-01T00:03:51;17.98;;;10.40;;
51382;SDS011;37475;43.358;1.248;2023-03-01T00:06:18;17.80;;;9.95;;
51382;SDS011;37475;43.358;1.248;2023-03-01T00:08:45;18.33;;;10.57;;
51382;SDS011;37475;43.358;1.248;2023-03-01T00:11:13;17.95;;;10.43;;
51382;SDS011;37475;43.358;1.248;2023-03-01T00:13:51;70.18;;;22.48;;
51382;SDS011;37475;43.358;1.248;2023-03-01T00:16:21;83.88;;;22.88;;
51382;SDS011;37475;43.358;1.248;2023-03-01T00:18:57;39.47;;;15.10;;
51382;SDS011;37475;43.358;1.248;2023-03-01T00:21:23;26.08;;;12.05;;
51382;SDS011;37475;43.358;1.248;2023-03-01T00:23:49;26.85;;;12.68;;
51382;SDS011;37475;43.358;1.248;2023-03-01T00:26:16;37.75;;;20.45;;
51382;SDS011;37475;43.358;1.248;2023-03-01T00:28:44;25.98;;;13.07;;
51382;SDS011;37475;43.358;1.248;2023-03-01T00:31:11;20.75;;;11.15;;
51382;SDS011;37475;43.358;1.248;2023-03-01T00:33:41;24.00;;;12.70;;
51382;SDS011;37475;43.358;1.248;2023-03-01T00:36:08;21.42;;;12.13;;
51382;SDS011;37475;43.358;1.248;2023-03-01T00:38:37;27.00;;;13.32;;
51382;SDS011;37475;43.358;1.248;2023-03-01T00:41:09;24.85;;;14.05;;
51382;SDS011;37475;43.358;1.248;2023-03-01T00:43:40;18.67;;;10.95;;
51382;SDS011;37475;43.358;1.248;2023-03-01T00:46:08;19.05;;;10.07;;
51382;SDS011;37475;43.358;1.248;2023-03-01T00:48:38;24.48;;;11.98;;
51382;SDS011;37475;43.358;1.248;2023-03-01T00:51:07;23.77;;;13.63;;
51382;SDS011;37475;43.358;1.248;2023-03-01T00:53:35;31.60;;;15.50;;
51382;SDS011;37475;43.358;1.248;2023-03-01T00:56:01;31.42;;;14.38;;
51382;SDS011;37475;43.358;1.248;2023-03-01T00:58:29;40.13;;;15.02;;
51382;SDS011;37475;43.358;1.248;2023-03-01T01:00:55;46.30;;;16.17;;
51382;SDS011;37475;43.358;1.248;2023-03-01T01:03:21;61.28;;;19.77;;
51382;SDS011;37475;43.358;1.248;2023-03-01T01:05:49;50.55;;;18.85;;
51382;SDS011;37475;43.358;1.248;2023-03-01T01:08:17;47.63;;;17.30;;
51382;SDS011;37475;43.358;1.248;2023-03-01T01:10:44;28.55;;;13.82;;
51382;SDS011;37475;43.358;1.248;2023-03-01T01:13:10;20.42;;;10.90;;
51382;SDS011;37475;43.358;1.248;2023-03-01T01:15:37;19.48;;;9.70;;
51382;SDS011;37475;43.358;1.248;2023-03-01T01:18:03;18.85;;;10.35;;
51382;SDS011;37475;43.358;1.248;2023-03-01T01:20:30;87.03;;;41.00;;
51382;SDS011;37475;43.358;1.248;2023-03-01T01:22:55;61.63;;;29.17;;
51382;SDS011;37475;43.358;1.248;2023-03-01T01:25:21;22.70;;;12.80;;
51382;SDS011;37475;43.358;1.248;2023-03-01T01:27:50;23.15;;;12.40;;
51382;SDS011;37475;43.358;1.248;2023-03-01T01:30:16;24.92;;;13.43;;
51382;SDS011;37475;43.358;1.248;2023-03-01T01:32:42;23.73;;;13.45;;
51382;SDS011;37475;43.358;1.248;2023-03-01T01:35:08;19.65;;;11.90;;
51382;SDS011;37475;43.358;1.248;2023-03-01T01:37:34;22.70;;;11.70;;
51382;SDS011;37475;43.358;1.248;2023-03-01T01:40:00;22.08;;;11.88;;
51382;SDS011;37475;43.358;1.248;2023-03-01T01:42:30;23.77;;;11.77;;
51382;SDS011;37475;43.358;1.248;2023-03-01T01:47:51;19.33;;;11.00;;
51382;SDS011;37475;43.358;1.248;2023-03-01T01:50:19;21.45;;;11.82;;
51382;SDS011;37475;43.358;1.248;2023-03-01T01:52:45;20.10;;;11.98;;
51382;SDS011;37475;43.358;1.248;2023-03-01T01:55:15;20.65;;;11.80;;
51382;SDS011;37475;43.358;1.248;2023-03-01T01:57:53;22.88;;;11.43;;
51382;SDS011;37475;43.358;1.248;2023-03-01T02:00:26;34.30;;;15.32;;
51382;SDS011;37475;43.358;1.248;2023-03-01T02:02:55;62.22;;;22.80;;
51382;SDS011;37475;43.358;1.248;2023-03-01T02:05:35;56.65;;;21.27;;
51382;SDS011;37475;43.358;1.248;2023-03-01T02:08:21;40.28;;;16.67;;
51382;SDS011;37475;43.358;1.248;2023-03-01T02:10:52;39.72;;;17.25;;
51382;SDS011;37475;43.358;1.248;2023-03-01T02:13:20;42.92;;;18.45;;
51382;SDS011;37475;43.358;1.248;2023-03-01T02:15:46;49.97;;;23.02;;
51382;SDS011;37475;43.358;1.248;2023-03-01T02:18:13;76.38;;;32.92;;
51382;SDS011;37475;43.358;1.248;2023-03-01T02:24:10;73.82;;;31.35;;
51382;SDS011;37475;43.358;1.248;2023-03-01T02:27:15;86.45;;;36.92;;
51382;SDS011;37475;43.358;1.248;2023-03-01T02:29:43;62.22;;;28.98;;
51382;SDS011;37475;43.358;1.248;2023-03-01T02:32:09;42.53;;;19.42;;
51382;SDS011;37475;43.358;1.248;2023-03-01T02:34:37;29.33;;;15.60;;
51382;SDS011;37475;43.358;1.248;2023-03-01T02:37:07;77.38;;;32.22;;
51382;SDS011;37475;43.358;1.248;2023-03-01T02:39:40;62.83;;;27.48;;
51382;SDS011;37475;43.358;1.248;2023-03-01T02:42:17;70.13;;;30.27;;
51382;SDS011;37475;43.358;1.248;2023-03-01T02:44:48;47.53;;;23.27;;
51382;SDS011;37475;43.358;1.248;2023-03-01T02:47:15;62.70;;;28.45;;
51382;SDS011;37475;43.358;1.248;2023-03-01T02:49:41;75.28;;;32.08;;
51382;SDS011;37475;43.358;1.248;2023-03-01T02:55:16;57.63;;;26.23;;
51382;SDS011;37475;43.358;1.248;2023-03-01T02:57:43;41.63;;;20.25;;
51382;SDS011;37475;43.358;1.248;2023-03-01T03:00:13;43.00;;;20.98;;
51382;SDS011;37475;43.358;1.248;2023-03-01T03:02:50;47.08;;;22.17;;
51382;SDS011;37475;43.358;1.248;2023-03-01T03:05:22;57.70;;;26.92;;
51382;SDS011;37475;43.358;1.248;2023-03-01T03:07:51;53.80;;;25.50;;
51382;SDS011;37475;43.358;1.248;2023-03-01T03:10:22;52.80;;;26.20;;
51382;SDS011;37475;43.358;1.248;2023-03-01T03:12:53;51.25;;;23.08;;
51382;SDS011;37475;43.358;1.248;2023-03-01T03:15:23;52.67;;;24.23;;
51382;SDS011;37475;43.358;1.248;2023-03-01T03:17:51;51.55;;;24.33;;
51382;SDS011;37475;43.358;1.248;2023-03-01T03:20:19;123.85;;;51.08;;
51382;SDS011;37475;43.358;1.248;2023-03-01T03:22:48;119.30;;;49.55;;
51382;SDS011;37475;43.358;1.248;2023-03-01T03:25:18;113.72;;;48.22;;
51382;SDS011;37475;43.358;1.248;2023-03-01T03:27:46;81.95;;;36.90;;
51382;SDS011;37475;43.358;1.248;2023-03-01T03:30:18;76.28;;;35.70;;
51382;SDS011;37475;43.358;1.248;2023-03-01T03:32:47;76.13;;;37.15;;
51382;SDS011;37475;43.358;1.248;2023-03-01T03:35:23;73.18;;;37.83;;
51382;SDS011;37475;43.358;1.248;2023-03-01T03:37:59;61.00;;;32.78;;
51382;SDS011;37475;43.358;1.248;2023-03-01T03:40:26;65.65;;;35.92;;
51382;SDS011;37475;43.358;1.248;2023-03-01T03:42:54;64.22;;;34.42;;
51382;SDS011;37475;43.358;1.248;2023-03-01T03:45:20;59.50;;;33.17;;
51382;SDS011;37475;43.358;1.248;2023-03-01T03:47:46;65.50;;;33.92;;
51382;SDS011;37475;43.358;1.248;2023-03-01T03:50:12;59.13;;;30.60;;
51382;SDS011;37475;43.358;1.248;2023-03-01T03:52:41;39.25;;;19.83;;
51382;SDS011;37475;43.358;1.248;2023-03-01T03:55:08;67.68;;;32.42;;
51382;SDS011;37475;43.358;1.248;2023-03-01T03:57:37;57.58;;;26.60;;
51382;SDS011;37475;43.358;1.248;2023-03-01T04:00:08;70.50;;;35.15;;
51382;SDS011;37475;43.358;1.248;2023-03-01T04:02:40;76.90;;;35.67;;
51382;SDS011;37475;43.358;1.248;2023-03-01T04:05:11;87.38;;;39.15;;
51382;SDS011;37475;43.358;1.248;2023-03-01T04:07:42;75.13;;;35.92;;
51382;SDS011;37475;43.358;1.248;2023-03-01T04:10:13;75.20;;;34.58;;
51382;SDS011;37475;43.358;1.248;2023-03-01T04:12:41;70.10;;;35.30;;
51382;SDS011;37475;43.358;1.248;2023-03-01T04:15:10;64.63;;;31.63;;
51382;SDS011;37475;43.358;1.248;2023-03-01T04:17:45;54.78;;;28.15;;
51382;SDS011;37475;43.358;1.248;2023-03-01T04:20:13;79.63;;;40.00;;
51382;SDS011;37475;43.358;1.248;2023-03-01T04:22:58;86.20;;;41.75;;
51382;SDS011;37475;43.358;1.248;2023-03-01T04:25:53;71.45;;;37.92;;
51382;SDS011;37475;43.358;1.248;2023-03-01T04:31:02;48.72;;;26.65;;
51382;SDS011;37475;43.358;1.248;2023-03-01T04:33:42;40.55;;;23.27;;
51382;SDS011;37475;43.358;1.248;2023-03-01T04:36:28;29.88;;;14.52;;
51382;SDS011;37475;43.358;1.248;2023-03-01T04:38:54;27.33;;;14.38;;
51382;SDS011;37475;43.358;1.248;2023-03-01T04:41:22;30.80;;;15.38;;
51382;SDS011;37475;43.358;1.248;2023-03-01T04:43:49;28.88;;;16.13;;
51382;SDS011;37475;43.358;1.248;2023-03-01T04:46:16;29.35;;;15.00;;
51382;SDS011;37475;43.358;1.248;2023-03-01T04:48:44;28.83;;;15.80;;
51382;SDS011;37475;43.358;1.248;2023-03-01T04:51:12;41.85;;;20.30;;
51382;SDS011;37475;43.358;1.248;2023-03-01T04:53:38;40.00;;;18.58;;
51382;SDS011;37475;43.358;1.248;2023-03-01T04:56:05;35.47;;;17.98;;
51382;SDS011;37475;43.358;1.248;2023-03-01T04:58:32;33.40;;;15.77;;
51382;SDS011;37475;43.358;1.248;2023-03-01T05:00:58;29.27;;;15.38;;
51382;SDS011;37475;43.358;1.248;2023-03-01T05:03:24;27.80;;;13.70;;
51382;SDS011;37475;43.358;1.248;2023-03-01T05:05:50;29.73;;;15.55;;
51382;SDS011;37475;43.358;1.248;2023-03-01T05:08:17;29.80;;;16.17;;
51382;SDS011;37475;43.358;1.248;2023-03-01T05:10:53;26.25;;;14.05;;
51382;SDS011;37475;43.358;1.248;2023-03-01T05:13:20;25.40;;;12.68;;
51382;SDS011;37475;43.358;1.248;2023-03-01T05:15:56;25.70;;;12.52;;
51382;SDS011;37475;43.358;1.248;2023-03-01T05:18:27;29.17;;;12.55;;
51382;SDS011;37475;43.358;1.248;2023-03-01T05:21:16;23.65;;;12.20;;
51382;SDS011;37475;43.358;1.248;2023-03-01T05:23:42;52.92;;;21.13;;
51382;SDS011;37475;43.358;1.248;2023-03-01T05:26:10;84.88;;;31.65;;
51382;SDS011;37475;43.358;1.248;2023-03-01T05:28:37;71.28;;;27.77;;
51382;SDS011;37475;43.358;1.248;2023-03-01T05:31:03;73.30;;;30.00;;
51382;SDS011;37475;43.358;1.248;2023-03-01T05:33:34;72.65;;;28.08;;
51382;SDS011;37475;43.358;1.248;2023-03-01T05:36:03;80.88;;;31.00;;
51382;SDS011;37475;43.358;1.248;2023-03-01T05:38:30;85.60;;;34.63;;
51382;SDS011;37475;43.358;1.248;2023-03-01T05:40:56;82.05;;;32.92;;
51382;SDS011;37475;43.358;1.248;2023-03-01T05:43:22;83.00;;;32.92;;
51382;SDS011;37475;43.358;1.248;2023-03-01T05:45:47;71.40;;;33.20;;
51382;SDS011;37475;43.358;1.248;2023-03-01T05:48:13;52.60;;;24.92;;
51382;SDS011;37475;43.358;1.248;2023-03-01T05:50:40;44.67;;;21.75;;
51382;SDS011;37475;43.358;1.248;2023-03-01T05:55:42;35.13;;;18.05;;
51382;SDS011;37475;43.358;1.248;2023-03-01T05:58:13;38.05;;;17.65;;
51382;SDS011;37475;43.358;1.248;2023-03-01T06:00:42;37.30;;;17.53;;
51382;SDS011;37475;43.358;1.248;2023-03-01T06:03:12;34.08;;;15.95;;
51382;SDS011;37475;43.358;1.248;2023-03-01T06:05:39;30.27;;;16.67;;
51382;SDS011;37475;43.358;1.248;2023-03-01T06:08:06;31.00;;;16.77;;
51382;SDS011;37475;43.358;1.248;2023-03-01T06:10:34;32.33;;;17.10;;
51382;SDS011;37475;43.358;1.248;2023-03-01T06:13:00;32.17;;;16.88;;
51382;SDS011;37475;43.358;1.248;2023-03-01T06:15:26;30.58;;;15.95;;
51382;SDS011;37475;43.358;1.248;2023-03-01T06:17:53;34.13;;;16.25;;
51382;SDS011;37475;43.358;1.248;2023-03-01T06:20:22;31.95;;;16.20;;
51382;SDS011;37475;43.358;1.248;2023-03-01T06:22:50;34.17;;;17.35;;
51382;SDS011;37475;43.358;1.248;2023-03-01T06:25:19;27.90;;;15.32;;
51382;SDS011;37475;43.358;1.248;2023-03-01T06:27:47;28.42;;;15.20;;
51382;SDS011;37475;43.358;1.248;2023-03-01T06:30:14;34.17;;;16.63;;
51382;SDS011;37475;43.358;1.248;2023-03-01T06:32:43;34.75;;;16.88;;
51382;SDS011;37475;43.358;1.248;2023-03-01T06:35:09;32.42;;;17.67;;
51382;SDS011;37475;43.358;1.248;2023-03-01T06:37:37;31.50;;;16.75;;
51382;SDS011;37475;43.358;1.248;2023-03-01T06:40:04;29.75;;;15.98;;
51382;SDS011;37475;43.358;1.248;2023-03-01T06:42:34;33.45;;;16.75;;
51382;SDS011;37475;43.358;1.248;2023-03-01T06:45:00;32.70;;;16.38;;
51382;SDS011;37475;43.358;1.248;2023-03-01T06:47:27;30.48;;;16.20;;
51382;SDS011;37475;43.358;1.248;2023-03-01T06:49:53;32.40;;;16.20;;
51382;SDS011;37475;43.358;1.248;2023-03-01T06:52:19;35.72;;;17.52;;
51382;SDS011;37475;43.358;1.248;2023-03-01T06:54:44;37.38;;;17.65;;
51382;SDS011;37475;43.358;1.248;2023-03-01T06:57:10;32.63;;;16.85;;
51382;SDS011;37475;43.358;1.248;2023-03-01T06:59:36;38.50;;;18.88;;
51382;SDS011;37475;43.358;1.248;2023-03-01T07:02:02;41.83;;;19.15;;
51382;SDS011;37475;43.358;1.248;2023-03-01T07:04:28;37.15;;;18.73;;
51382;SDS011;37475;43.358;1.248;2023-03-01T07:06:55;38.30;;;18.92;;
51382;SDS011;37475;43.358;1.248;2023-03-01T07:09:24;42.53;;;19.58;;
51382;SDS011;37475;43.358;1.248;2023-03-01T07:11:50;44.78;;;21.60;;
51382;SDS011;37475;43.358;1.248;2023-03-01T07:14:16;38.60;;;19.70;;
51382;SDS011;37475;43.358;1.248;2023-03-01T07:16:42;43.40;;;21.80;;
51382;SDS011;37475;43.358;1.248;2023-03-01T07:19:07;45.55;;;24.38;;
51382;SDS011;37475;43.358;1.248;2023-03-01T07:21:33;40.42;;;21.00;;
51382;SDS011;37475;43.358;1.248;2023-03-01T07:23:59;36.47;;;19.38;;
51382;SDS011;37475;43.358;1.248;2023-03-01T07:26:25;35.20;;;18.60;;
51382;SDS011;37475;43.358;1.248;2023-03-01T07:28:50;32.15;;;16.17;;
51382;SDS011;37475;43.358;1.248;2023-03-01T07:31:16;28.08;;;15.05;;
51382;SDS011;37475;43.358;1.248;2023-03-01T07:33:42;30.92;;;16.90;;
51382;SDS011;37475;43.358;1.248;2023-03-01T07:36:08;33.60;;;16.50;;
51382;SDS011;37475;43.358;1.248;2023-03-01T07:38:34;25.40;;;13.75;;
51382;SDS011;37475;43.358;1.248;2023-03-01T07:41:01;29.15;;;14.55;;
51382;SDS011;37475;43.358;1.248;2023-03-01T07:43:29;24.60;;;13.07;;
51382;SDS011;37475;43.358;1.248;2023-03-01T07:45:59;22.50;;;12.98;;
51382;SDS011;37475;43.358;1.248;2023-03-01T07:48:26;27.15;;;12.57;;
51382;SDS011;37475;43.358;1.248;2023-03-01T07:50:53;24.73;;;13.20;;
51382;SDS011;37475;43.358;1.248;2023-03-01T07:53:19;27.40;;;13.07;;
51382;SDS011;37475;43.358;1.248;2023-03-01T07:55:44;25.90;;;14.40;;
51382;SDS011;37475;43.358;1.248;2023-03-01T07:58:10;24.77;;;13.60;;
51382;SDS011;37475;43.358;1.248;2023-03-01T08:00:36;30.95;;;14.93;;
51382;SDS011;37475;43.358;1.248;2023-03-01T08:03:02;30.45;;;14.27;;
51382;SDS011;37475;43.358;1.248;2023-03-01T08:05:28;29.20;;;14.68;;
51382;SDS011;37475;43.358;1.248;2023-03-01T08:07:54;25.30;;;13.15;;
51382;SDS011;37475;43.358;1.248;2023-03-01T08:10:20;25.17;;;13.63;;
51382;SDS011;37475;43.358;1.248;2023-03-01T08:12:46;30.00;;;14.27;;
51382;SDS011;37475;43.358;1.248;2023-03-01T08:15:11;26.20;;;12.88;;
51382;SDS011;37475;43.358;1.248;2023-03-01T08:17:37;26.33;;;13.98;;
51382;SDS011;37475;43.358;1.248;2023-03-01T08:20:03;24.67;;;13.95;;
51382;SDS011;37475;43.358;1.248;2023-03-01T08:22:31;25.42;;;14.05;;
51382;SDS011;37475;43.358;1.248;2023-03-01T08:24:57;27.13;;;14.27;;
51382;SDS011;37475;43.358;1.248;2023-03-01T08:27:23;26.02;;;14.07;;
51382;SDS011;37475;43.358;1.248;2023-03-01T08:29:49;29.00;;;13.88;;
51382;SDS011;37475;43.358;1.248;2023-03-01T08:32:14;24.27;;;13.40;;
51382;SDS011;37475;43.358;1.248;2023-03-01T08:34:40;24.77;;;12.93;;
51382;SDS011;37475;43.358;1.248;2023-03-01T08:37:06;23.95;;;12.73;;
51382;SDS011;37475;43.358;1.248;2023-03-01T08:39:32;22.45;;;12.10;;
51382;SDS011;37475;43.358;1.248;2023-03-01T08:41:58;23.58;;;11.82;;
51382;SDS011;37475;43.358;1.248;2023-03-01T08:44:23;21.60;;;12.55;;
51382;SDS011;37475;43.358;1.248;2023-03-01T08:46:49;25.30;;;13.20;;
51382;SDS011;37475;43.358;1.248;2023-03-01T08:49:17;24.90;;;12.95;;
51382;SDS011;37475;43.358;1.248;2023-03-01T08:51:44;21.92;;;12.50;;
51382;SDS011;37475;43.358;1.248;2023-03-01T08:54:13;22.08;;;12.50;;
51382;SDS011;37475;43.358;1.248;2023-03-01T08:56:41;25.92;;;13.35;;
51382;SDS011;37475;43.358;1.248;2023-03-01T08:59:07;24.92;;;12.98;;
51382;SDS011;37475;43.358;1.248;2023-03-01T09:01:34;21.08;;;12.25;;
51382;SDS011;37475;43.358;1.248;2023-03-01T09:04:01;19.90;;;10.80;;
51382;SDS011;37475;43.358;1.248;2023-03-01T09:06:29;16.23;;;9.75;;
51382;SDS011;37475;43.358;1.248;2023-03-01T09:08:58;17.73;;;9.95;;
51382;SDS011;37475;43.358;1.248;2023-03-01T09:11:24;17.50;;;10.00;;
51382;SDS011;37475;43.358;1.248;2023-03-01T09:13:50;13.48;;;8.45;;
51382;SDS011;37475;43.358;1.248;2023-03-01T09:16:17;13.98;;;8.68;;
51382;SDS011;37475;43.358;1.248;2023-03-01T09:18:45;13.80;;;8.85;;
51382;SDS011;37475;43.358;1.248;2023-03-01T09:21:16;15.23;;;9.23;;
51382;SDS011;37475;43.358;1.248;2023-03-01T09:23:44;14.38;;;8.93;;
51382;SDS011;37475;43.358;1.248;2023-03-01T09:26:13;14.35;;;8.52;;
51382;SDS011;37475;43.358;1.248;2023-03-01T09:28:46;14.18;;;8.15;;
51382;SDS011;37475;43.358;1.248;2023-03-01T09:31:14;12.80;;;7.97;;
51382;SDS011;37475;43.358;1.248;2023-03-01T09:33:41;13.13;;;8.13;;
51382;SDS011;37475;43.358;1.248;2023-03-01T09:36:09;12.55;;;7.85;;
51382;SDS011;37475;43.358;1.248;2023-03-01T09:38:39;12.57;;;7.40;;
51382;SDS011;37475;43.358;1.248;2023-03-01T09:43:47;12.82;;;8.10;;
51382;SDS011;37475;43.358;1.248;2023-03-01T09:46:41;13.02;;;7.78;;
51382;SDS011;37475;43.358;1.248;2023-03-01T09:49:26;9.57;;;6.32;;
51382;SDS011;37475;43.358;1.248;2023-03-01T09:51:57;12.40;;;7.57;;
51382;SDS011;37475;43.358;1.248;2023-03-01T09:54:37;35.78;;;17.77;;
51382;SDS011;37475;43.358;1.248;2023-03-01T09:57:05;13.57;;;8.68;;
51382;SDS011;37475;43.358;1.248;2023-03-01T09:59:50;11.23;;;6.65;;
51382;SDS011;37475;43.358;1.248;2023-03-01T10:02:30;9.65;;;6.72;;
51382;SDS011;37475;43.358;1.248;2023-03-01T10:11:15;10.45;;;6.65;;
51382;SDS011;37475;43.358;1.248;2023-03-01T10:13:55;10.13;;;6.45;;
51382;SDS011;37475;43.358;1.248;2023-03-01T10:16:26;10.68;;;5.75;;
51382;SDS011;37475;43.358;1.248;2023-03-01T10:18:56;11.50;;;6.78;;
51382;SDS011;37475;43.358;1.248;2023-03-01T10:21:27;10.75;;;6.65;;
51382;SDS011;37475;43.358;1.248;2023-03-01T10:23:58;10.10;;;6.03;;
51382;SDS011;37475;43.358;1.248;2023-03-01T10:26:55;10.60;;;6.53;;
51382;SDS011;37475;43.358;1.248;2023-03-01T10:29:26;10.52;;;6.30;;
51382;SDS011;37475;43.358;1.248;2023-03-01T10:32:03;8.68;;;6.43;;
51382;SDS011;37475;43.358;1.248;2023-03-01T10:34:32;10.82;;;6.60;;
51382;SDS011;37475;43.358;1.248;2023-03-01T10:39:53;12.75;;;8.43;;
51382;SDS011;37475;43.358;1.248;2023-03-01T10:42:45;10.48;;;6.93;;
51382;SDS011;37475;43.358;1.248;2023-03-01T10:45:36;11.82;;;7.32;;
51382;SDS011;37475;43.358;1.248;2023-03-01T10:48:22;10.93;;;6.53;;
51382;SDS011;37475;43.358;1.248;2023-03-01T10:56:10;8.98;;;6.20;;
51382;SDS011;37475;43.358;1.248;2023-03-01T10:58:39;8.90;;;5.70;;
51382;SDS011;37475;43.358;1.248;2023-03-01T11:03:55;13.23;;;6.90;;
51382;SDS011;37475;43.358;1.248;2023-03-01T11:06:28;10.93;;;7.32;;
51382;SDS011;37475;43.358;1.248;2023-03-01T11:08:54;11.57;;;6.13;;
51382;SDS011;37475;43.358;1.248;2023-03-01T11:11:30;9.57;;;7.43;;
51382;SDS011;37475;43.358;1.248;2023-03-01T11:16:45;8.95;;;6.20;;
51382;SDS011;37475;43.358;1.248;2023-03-01T11:19:19;10.52;;;6.55;;
51382;SDS011;37475;43.358;1.248;2023-03-01T11:24:39;14.70;;;8.75;;
51382;SDS011;37475;43.358;1.248;2023-03-01T11:27:26;10.18;;;7.55;;
51382;SDS011;37475;43.358;1.248;2023-03-01T11:32:41;9.80;;;7.43;;
51382;SDS011;37475;43.358;1.248;2023-03-01T11:35:22;11.88;;;9.10;;
51382;SDS011;37475;43.358;1.248;2023-03-01T11:40:44;8.80;;;6.15;;
51382;SDS011;37475;43.358;1.248;2023-03-01T11:46:26;8.85;;;6.03;;
51382;SDS011;37475;43.358;1.248;2023-03-01T11:57:50;8.32;;;6.00;;
51382;SDS011;37475;43.358;1.248;2023-03-01T12:00:43;10.00;;;6.30;;
51382;SDS011;37475;43.358;1.248;2023-03-01T12:03:52;8.90;;;6.43;;
51382;SDS011;37475;43.358;1.248;2023-03-01T12:12:43;10.65;;;6.18;;
51382;SDS011;37475;43.358;1.248;2023-03-01T12:18:11;8.77;;;6.32;;
51382;SDS011;37475;43.358;1.248;2023-03-01T12:21:06;7.10;;;5.18;;
51382;SDS011;37475;43.358;1.248;2023-03-01T12:27:09;10.43;;;6.38;;
51382;SDS011;37475;43.358;1.248;2023-03-01T12:38:14;9.65;;;6.00;;
51382;SDS011;37475;43.358;1.248;2023-03-01T12:49:24;9.23;;;5.88;;
51382;SDS011;37475;43.358;1.248;2023-03-01T12:54:50;8.20;;;5.93;;
51382;SDS011;37475;43.358;1.248;2023-03-01T12:57:21;8.43;;;6.00;;
51382;SDS011;37475;43.358;1.248;2023-03-01T13:05:28;13.77;;;8.73;;
51382;SDS011;37475;43.358;1.248;2023-03-01T13:10:55;14.98;;;11.95;;
51382;SDS011;37475;43.358;1.248;2023-03-01T13:13:26;10.18;;;6.78;;
51382;SDS011;37475;43.358;1.248;2023-03-01T13:15:54;11.45;;;8.45;;
51382;SDS011;37475;43.358;1.248;2023-03-01T13:20:53;7.70;;;5.85;;
51382;SDS011;37475;43.358;1.248;2023-03-01T13:28:45;8.05;;;5.85;;
51382;SDS011;37475;43.358;1.248;2023-03-01T13:46:51;7.80;;;6.03;;
51382;SDS011;37475;43.358;1.248;2023-03-01T13:49:58;7.90;;;5.57;;
51382;SDS011;37475;43.358;1.248;2023-03-01T13:55:06;7.65;;;5.82;;
51382;SDS011;37475;43.358;1.248;2023-03-01T13:57:39;12.90;;;8.90;;
51382;SDS011;37475;43.358;1.248;2023-03-01T14:00:26;8.02;;;5.80;;
51382;SDS011;37475;43.358;1.248;2023-03-01T14:03:01;11.45;;;8.15;;
51382;SDS011;37475;43.358;1.248;2023-03-01T14:05:34;8.05;;;5.97;;
51382;SDS011;37475;43.358;1.248;2023-03-01T14:08:01;9.27;;;6.55;;
51382;SDS011;37475;43.358;1.248;2023-03-01T14:10:35;7.68;;;5.72;;
51382;SDS011;37475;43.358;1.248;2023-03-01T14:13:32;7.95;;;5.57;;
51382;SDS011;37475;43.358;1.248;2023-03-01T14:18:58;8.50;;;5.38;;
51382;SDS011;37475;43.358;1.248;2023-03-01T14:21:43;8.40;;;5.63;;
51382;SDS011;37475;43.358;1.248;2023-03-01T14:24:22;8.18;;;5.53;;
51382;SDS011;37475;43.358;1.248;2023-03-01T14:26:49;7.57;;;5.50;;
51382;SDS011;37475;43.358;1.248;2023-03-01T14:29:33;10.52;;;7.40;;
51382;SDS011;37475;43.358;1.248;2023-03-01T14:32:12;9.48;;;6.70;;
51382;SDS011;37475;43.358;1.248;2023-03-01T14:34:51;7.68;;;5.43;;
51382;SDS011;37475;43.358;1.248;2023-03-01T14:37:27;8.38;;;4.82;;
51382;SDS011;37475;43.358;1.248;2023-03-01T14:39:57;9.43;;;5.47;;
51382;SDS011;37475;43.358;1.248;2023-03-01T14:42:27;9.40;;;5.15;;
51382;SDS011;37475;43.358;1.248;2023-03-01T14:44:56;9.77;;;6.07;;
51382;SDS011;37475;43.358;1.248;2023-03-01T14:47:29;8.75;;;6.28;;
51382;SDS011;37475;43.358;1.248;2023-03-01T14:50:32;9.40;;;6.00;;
51382;SDS011;37475;43.358;1.248;2023-03-01T14:52:56;8.05;;;5.65;;
51382;SDS011;37475;43.358;1.248;2023-03-01T14:58:09;8.68;;;6.28;;
51382;SDS011;37475;43.358;1.248;2023-03-01T15:00:49;6.32;;;4.63;;
51382;SDS011;37475;43.358;1.248;2023-03-01T15:06:09;7.68;;;5.70;;
51382;SDS011;37475;43.358;1.248;2023-03-01T15:08:41;10.00;;;5.68;;
51382;SDS011;37475;43.358;1.248;2023-03-01T15:13:52;7.50;;;5.05;;
51382;SDS011;37475;43.358;1.248;2023-03-01T15:16:20;7.65;;;5.38;;
51382;SDS011;37475;43.358;1.248;2023-03-01T15:18:53;7.72;;;5.63;;
51382;SDS011;37475;43.358;1.248;2023-03-01T15:21:27;7.55;;;5.50;;
51382;SDS011;37475;43.358;1.248;2023-03-01T15:29:26;7.55;;;5.53;;
51382;SDS011;37475;43.358;1.248;2023-03-01T15:32:02;12.77;;;5.07;;
51382;SDS011;37475;43.358;1.248;2023-03-01T15:34:53;6.57;;;5.15;;
51382;SDS011;37475;43.358;1.248;2023-03-01T15:40:21;8.65;;;5.82;;
51382;SDS011;37475;43.358;1.248;2023-03-01T15:43:06;8.45;;;5.38;;
51382;SDS011;37475;43.358;1.248;2023-03-01T15:46:04;8.65;;;5.85;;
51382;SDS011;37475;43.358;1.248;2023-03-01T15:48:29;7.63;;;5.18;;
51382;SDS011;37475;43.358;1.248;2023-03-01T15:50:56;10.25;;;7.22;;
51382;SDS011;37475;43.358;1.248;2023-03-01T15:53:24;9.55;;;6.93;;
51382;SDS011;37475;43.358;1.248;2023-03-01T15:55:52;9.32;;;6.55;;
51382;SDS011;37475;43.358;1.248;2023-03-01T15:58:20;9.38;;;5.20;;
51382;SDS011;37475;43.358;1.248;2023-03-01T16:00:50;7.55;;;5.30;;
51382;SDS011;37475;43.358;1.248;2023-03-01T16:03:21;8.18;;;5.10;;
51382;SDS011;37475;43.358;1.248;2023-03-01T16:05:48;7.05;;;4.65;;
51382;SDS011;37475;43.358;1.248;2023-03-01T16:08:15;19.63;;;9.85;;
51382;SDS011;37475;43.358;1.248;2023-03-01T16:10:42;8.02;;;5.18;;
51382;SDS011;37475;43.358;1.248;2023-03-01T16:13:09;22.33;;;10.75;;
51382;SDS011;37475;43.358;1.248;2023-03-01T16:15:39;7.03;;;5.43;;
51382;SDS011;37475;43.358;1.248;2023-03-01T16:18:05;7.68;;;5.25;;
51382;SDS011;37475;43.358;1.248;2023-03-01T16:20:32;26.38;;;5.80;;
51382;SDS011;37475;43.358;1.248;2023-03-01T16:22:59;8.57;;;5.72;;
51382;SDS011;37475;43.358;1.248;2023-03-01T16:25:31;24.88;;;11.43;;
51382;SDS011;37475;43.358;1.248;2023-03-01T16:27:57;6.82;;;4.75;;
51382;SDS011;37475;43.358;1.248;2023-03-01T16:30:25;7.45;;;5.35;;
51382;SDS011;37475;43.358;1.248;2023-03-01T16:32:52;13.85;;;7.82;;
51382;SDS011;37475;43.358;1.248;2023-03-01T16:35:19;12.70;;;8.00;;
51382;SDS011;37475;43.358;1.248;2023-03-01T16:37:46;10.32;;;6.55;;
51382;SDS011;37475;43.358;1.248;2023-03-01T16:40:17;7.70;;;5.18;;
51382;SDS011;37475;43.358;1.248;2023-03-01T16:42:49;8.75;;;5.57;;
51382;SDS011;37475;43.358;1.248;2023-03-01T16:45:16;7.75;;;5.20;;
51382;SDS011;37475;43.358;1.248;2023-03-01T16:47:43;7.15;;;5.30;;
51382;SDS011;37475;43.358;1.248;2023-03-01T16:50:09;8.70;;;5.60;;
51382;SDS011;37475;43.358;1.248;2023-03-01T16:52:35;7.57;;;5.15;;
51382;SDS011;37475;43.358;1.248;2023-03-01T16:55:02;7.55;;;5.13;;
51382;SDS011;37475;43.358;1.248;2023-03-01T16:57:29;9.43;;;5.75;;
51382;SDS011;37475;43.358;1.248;2023-03-01T16:59:55;8.02;;;5.93;;
51382;SDS011;37475;43.358;1.248;2023-03-01T17:02:21;9.32;;;5.88;;
51382;SDS011;37475;43.358;1.248;2023-03-01T17:04:54;9.20;;;5.65;;
51382;SDS011;37475;43.358;1.248;2023-03-01T17:07:20;7.50;;;5.85;;
51382;SDS011;37475;43.358;1.248;2023-03-01T17:09:47;7.85;;;5.22;;
51382;SDS011;37475;43.358;1.248;2023-03-01T17:12:13;9.63;;;5.80;;